Time;durP1;ratioP1;P1;durP2;ratioP2;P2;SDS_P1;SDS_P2;PMS_P1;PMS_P2;Temp;Humidity;BMP_temperature;BMP_pressure;BME280_temperature;BME280_humidity;BME280_pressure;Samples;Min_cycle;Max_cycle;Signal;HPM_P1;HPM_P2
2024/01/19 00:02:57;;;;;;;118.60;37.08;;;;;;;-3.46;100.00;100366.53;10350938;22;20023;-85
2024/01/19 00:06:57;;;;;;;157.60;40.13;;;;;;;-3.57;100.00;100400.41;10326064;22;20042;-85
2024/01/19 00:11:05;;;;;;;145.88;38.85;;;;;;;-4.14;100.00;100396.25;10332190;22;20020;-85
2024/01/19 00:15:07;;;;;;;163.00;31.58;;;;;;;-4.99;100.00;100375.41;10327391;22;20015;-85
2024/01/19 00:19:09;;;;;;;151.77;23.35;;;;;;;-4.72;100.00;100421.97;10377097;22;20070;-85
2024/01/19 00:23:10;;;;;;;132.18;22.25;;;;;;;-4.96;100.00;100407.78;10376738;22;20027;-85
2024/01/19 00:27:10;;;;;;;76.00;21.95;;;;;;;-5.11;100.00;100408.25;10325640;22;20064;-85
2024/01/19 00:31:11;;;;;;;129.88;19.80;;;;;;;-5.22;100.00;100420.88;10324916;22;20051;-85
2024/01/19 00:35:13;;;;;;;171.00;22.60;;;;;;;-5.41;100.00;100430.22;10326470;22;20475;-85
2024/01/19 00:39:14;;;;;;;112.10;19.65;;;;;;;-5.63;100.00;100430.88;10352643;22;20069;-85
2024/01/19 00:43:15;;;;;;;96.88;17.25;;;;;;;-5.98;100.00;100405.53;10325590;22;20020;-84
2024/01/19 00:47:16;;;;;;;93.75;17.40;;;;;;;-6.00;100.00;100431.06;10350836;22;20018;-85
2024/01/19 00:51:17;;;;;;;104.78;19.48;;;;;;;-5.94;100.00;100438.78;10325020;22;20024;-85
2024/01/19 00:55:18;;;;;;;98.72;19.95;;;;;;;-5.97;100.00;100459.91;10349744;22;20269;-84
2024/01/19 00:59:21;;;;;;;109.15;23.55;;;;;;;-6.22;100.00;100440.41;10375682;22;20022;-84
2024/01/19 01:03:23;;;;;;;74.68;19.40;;;;;;;-6.34;100.00;100427.56;10286737;22;20074;-85
2024/01/19 01:07:23;;;;;;;98.78;21.55;;;;;;;-6.08;100.00;100483.00;10278492;22;20387;-85
2024/01/19 01:11:24;;;;;;;93.22;19.88;;;;;;;-6.31;100.00;100474.81;10324306;22;20118;-85
2024/01/19 01:15:25;;;;;;;73.20;19.13;;;;;;;-6.53;100.00;100457.81;10273088;22;20047;-85
2024/01/19 01:19:28;;;;;;;68.93;21.63;;;;;;;-6.31;100.00;100452.00;10332239;22;20092;-85
2024/01/19 01:23:31;;;;;;;78.55;21.42;;;;;;;-6.26;100.00;100457.16;10326180;22;20016;-85
2024/01/19 01:27:33;;;;;;;60.05;20.75;;;;;;;-6.19;100.00;100479.78;10308377;22;20503;-85
2024/01/19 01:31:34;;;;;;;71.70;20.13;;;;;;;-6.23;100.00;100488.63;10339604;22;20011;-85
2024/01/19 01:35:35;;;;;;;90.93;21.55;;;;;;;-6.47;100.00;100494.47;10282549;22;20464;-85
2024/01/19 01:39:36;;;;;;;94.53;20.48;;;;;;;-6.49;100.00;100517.31;10335007;22;20495;-85
2024/01/19 01:43:37;;;;;;;81.68;17.48;;;;;;;-6.65;100.00;100495.75;10375587;22;20381;-85
2024/01/19 01:47:38;;;;;;;68.80;16.38;;;;;;;-6.91;99.52;100481.47;10322640;22;20018;-85
2024/01/19 01:51:39;;;;;;;52.42;15.82;;;;;;;-6.93;100.00;100505.16;10298926;22;20065;-85
2024/01/19 01:55:39;;;;;;;46.00;14.38;;;;;;;-6.84;100.00;100504.09;10324511;22;20403;-84
2024/01/19 01:59:41;;;;;;;45.03;14.45;;;;;;;-6.71;100.00;100531.84;10323993;22;20063;-84
2024/01/19 02:03:42;;;;;;;46.80;15.05;;;;;;;-6.73;99.51;100559.91;10299204;22;20027;-84
2024/01/19 02:07:42;;;;;;;54.67;16.25;;;;;;;-7.03;99.67;100521.16;10324621;22;20015;-84
2024/01/19 02:11:44;;;;;;;45.65;15.20;;;;;;;-7.11;99.17;100525.72;10298802;22;20160;-84
2024/01/19 02:15:44;;;;;;;54.25;16.92;;;;;;;-7.26;98.60;100526.03;10321542;22;20078;-84
2024/01/19 02:19:45;;;;;;;56.83;16.08;;;;;;;-7.06;99.02;100566.72;10332414;22;20015;-84
2024/01/19 02:23:59;;;;;;;62.85;17.23;;;;;;;-6.90;99.53;100575.16;10280164;22;20461;-83
2024/01/19 02:28:03;;;;;;;53.60;15.52;;;;;;;-7.06;98.24;100577.25;10374129;22;20386;-85
2024/01/19 02:32:03;;;;;;;45.00;15.93;;;;;;;-7.09;99.24;100574.66;10350285;22;20073;-85
2024/01/19 02:36:04;;;;;;;61.70;19.75;;;;;;;-7.12;98.36;100586.97;10286398;22;20019;-84
2024/01/19 02:40:07;;;;;;;56.03;17.15;;;;;;;-7.44;97.68;100548.22;10310668;22;20050;-84
2024/01/19 02:44:08;;;;;;;54.13;15.43;;;;;;;-7.47;96.87;100553.56;10349634;22;20016;-85
2024/01/19 02:48:09;;;;;;;59.53;17.40;;;;;;;-7.10;98.29;100595.72;10347302;22;20489;-85
2024/01/19 02:52:10;;;;;;;48.05;17.58;;;;;;;-7.03;98.64;100586.81;10348579;22;20015;-85
2024/01/19 02:56:13;;;;;;;48.15;16.23;;;;;;;-6.86;99.24;100579.47;10324066;22;20019;-86
2024/01/19 03:00:14;;;;;;;49.50;17.65;;;;;;;-6.91;98.47;100597.06;10343852;22;20020;-85
2024/01/19 03:04:14;;;;;;;41.22;15.85;;;;;;;-6.89;98.67;100587.41;10257639;22;20012;-84
2024/01/19 03:08:21;;;;;;;47.85;15.70;;;;;;;-6.92;98.37;100574.34;10291368;22;20487;-84
2024/01/19 03:12:21;;;;;;;46.30;17.35;;;;;;;-6.80;98.20;100610.88;10277280;22;20024;-84
2024/01/19 03:16:25;;;;;;;44.75;16.55;;;;;;;-7.10;98.27;100548.44;10315538;22;20559;-86
2024/01/19 03:20:27;;;;;;;;;;;;;;;-6.73;98.88;100617.72;10307987;22;20020;-86
2024/01/19 03:24:29;;;;;;;36.45;15.00;;;;;;;-6.63;99.10;100598.22;10349698;22;20078;-84
2024/01/19 03:28:30;;;;;;;42.45;16.55;;;;;;;-6.38;99.83;100608.19;10306594;22;20054;-86
2024/01/19 03:32:30;;;;;;;45.65;16.70;;;;;;;-6.22;100.00;100616.63;10344702;22;20471;-84
2024/01/19 03:36:32;;;;;;;44.83;16.63;;;;;;;-6.24;100.00;100586.84;10285354;22;20031;-86
2024/01/19 03:40:36;;;;;;;37.55;15.13;;;;;;;-6.13;100.00;100587.47;10313113;22;20047;-86
2024/01/19 03:44:36;;;;;;;40.72;14.65;;;;;;;-5.86;100.00;100615.72;10284403;22;20134;-85
2024/01/19 03:48:37;;;;;;;38.47;14.98;;;;;;;-5.65;100.00;100604.66;10297010;22;20020;-85
2024/01/19 03:52:38;;;;;;;38.35;13.77;;;;;;;-5.53;100.00;100604.34;10298649;22;20008;-86
2024/01/19 03:56:38;;;;;;;39.60;14.02;;;;;;;-5.39;100.00;100622.44;10307621;22;20090;-85
2024/01/19 04:00:39;;;;;;;45.28;15.32;;;;;;;-5.69;100.00;100545.09;10321960;22;20369;-86
2024/01/19 04:04:40;;;;;;;32.05;13.73;;;;;;;-5.18;100.00;100633.28;10297511;22;20016;-86
2024/01/19 04:08:41;;;;;;;39.90;15.43;;;;;;;-5.68;100.00;100545.97;10319295;22;20015;-86
2024/01/19 04:12:42;;;;;;;36.97;14.13;;;;;;;-5.17;100.00;100635.00;10309479;22;20015;-86
2024/01/19 04:16:42;;;;;;;40.60;14.82;;;;;;;-5.26;100.00;100598.38;10372170;22;20360;-86
2024/01/19 04:20:50;;;;;;;44.90;15.63;;;;;;;-4.92;100.00;100635.19;10322966;22;20403;-86
2024/01/19 04:24:50;;;;;;;32.38;13.82;;;;;;;-4.96;100.00;100608.09;10322630;22;20023;-85
2024/01/19 04:28:51;;;;;;;36.38;14.60;;;;;;;-4.95;100.00;100612.44;10321250;22;20487;-85
2024/01/19 04:32:51;;;;;;;40.78;15.43;;;;;;;-5.05;100.00;100603.06;10323781;22;20015;-85
2024/01/19 04:36:55;;;;;;;38.17;15.80;;;;;;;-5.03;100.00;100648.66;10312346;22;20356;-85
2024/01/19 04:41:02;;;;;;;37.00;14.23;;;;;;;-5.17;100.00;100629.75;10265764;22;20028;-85
2024/01/19 04:45:07;;;;;;;34.42;14.23;;;;;;;-5.32;100.00;100593.25;10350538;22;20091;-83
2024/01/19 04:49:07;;;;;;;34.53;14.07;;;;;;;-4.84;100.00;100649.03;10299739;22;20481;-84
2024/01/19 04:53:08;;;;;;;35.60;12.88;;;;;;;-5.15;100.00;100591.06;10298428;22;20397;-83
2024/01/19 04:57:09;;;;;;;34.20;14.40;;;;;;;-4.88;100.00;100627.16;10322662;22;20073;-83
2024/01/19 05:01:09;;;;;;;37.55;14.15;;;;;;;-4.66;100.00;100665.22;10296906;22;20028;-83
2024/01/19 05:05:10;;;;;;;32.47;13.77;;;;;;;-4.60;100.00;100669.47;10350719;22;20443;-84
2024/01/19 05:09:11;;;;;;;36.92;13.95;;;;;;;-4.61;100.00;100658.03;10325067;22;20503;-85
2024/01/19 05:13:11;;;;;;;38.50;14.50;;;;;;;-4.64;100.00;100657.25;10325463;22;20023;-85
2024/01/19 05:17:12;;;;;;;35.75;12.70;;;;;;;-4.58;100.00;100649.16;10300872;22;20023;-84
2024/01/19 05:21:12;;;;;;;33.35;12.85;;;;;;;-4.26;100.00;100665.81;10324161;22;20011;-83
2024/01/19 05:25:17;;;;;;;31.20;13.32;;;;;;;-4.10;100.00;100676.78;10299961;22;20066;-84
2024/01/19 05:29:18;;;;;;;34.00;12.23;;;;;;;-4.07;100.00;100672.28;10326613;22;20483;-83
2024/01/19 05:33:18;;;;;;;27.48;11.40;;;;;;;-4.10;100.00;100685.56;10325422;22;20373;-83
2024/01/19 05:37:19;;;;;;;36.20;13.13;;;;;;;-4.19;100.00;100688.47;10321113;22;20476;-84
2024/01/19 05:41:21;;;;;;;36.72;13.63;;;;;;;-4.43;100.00;100686.53;10345754;22;20019;-83
2024/01/19 05:45:21;;;;;;;35.55;13.05;;;;;;;-4.63;100.00;100707.31;10320771;22;20077;-84
2024/01/19 05:49:22;;;;;;;39.58;13.82;;;;;;;-4.72;100.00;100702.31;10319829;22;20455;-84
2024/01/19 05:53:22;;;;;;;44.67;15.68;;;;;;;-4.67;100.00;100695.13;10289895;22;20141;-84
2024/01/19 05:57:23;;;;;;;40.28;13.45;;;;;;;-4.61;100.00;100721.34;10309393;22;20016;-85
2024/01/19 06:01:26;;;;;;;42.33;12.75;;;;;;;-4.78;100.00;100723.56;10318698;22;20089;-85
2024/01/19 06:05:27;;;;;;;37.50;13.52;;;;;;;-5.21;100.00;100686.06;10316732;22;20480;-84
2024/01/19 06:09:27;;;;;;;40.47;11.90;;;;;;;-5.10;100.00;100720.88;10291808;22;20459;-85
2024/01/19 06:13:28;;;;;;;37.97;12.43;;;;;;;-4.97;100.00;100735.47;10368845;22;20019;-85
2024/01/19 06:17:28;;;;;;;33.85;12.07;;;;;;;-5.32;100.00;100696.00;10344986;22;20024;-85
2024/01/19 06:21:29;;;;;;;39.03;14.82;;;;;;;-5.03;100.00;100746.16;10317087;22;20019;-86
2024/01/19 06:25:29;;;;;;;30.35;12.43;;;;;;;-5.26;100.00;100745.00;10319494;22;20035;-83
2024/01/19 06:29:30;;;;;;;38.92;12.32;;;;;;;-5.74;100.00;100725.97;10319842;22;20023;-88
2024/01/19 06:33:31;;;;;;;33.92;12.85;;;;;;;-5.89;100.00;100730.75;10344604;22;20039;-86
2024/01/19 06:37:32;;;;;;;34.38;12.30;;;;;;;-5.90;100.00;100755.31;10324593;22;20025;-86
2024/01/19 06:41:32;;;;;;;34.88;11.93;;;;;;;-5.83;100.00;100754.31;10321157;22;20020;-86
2024/01/19 06:45:33;;;;;;;36.42;13.60;;;;;;;-5.83;100.00;100770.94;10295019;22;20015;-86
2024/01/19 06:49:36;;;;;;;36.40;12.68;;;;;;;-5.91;100.00;100770.25;10369770;22;20022;-87
2024/01/19 06:53:37;;;;;;;34.08;12.82;;;;;;;-6.31;100.00;100748.31;10348671;22;20019;-87
2024/01/19 06:57:38;;;;;;;31.08;12.70;;;;;;;-6.41;100.00;100754.63;10323675;22;20024;-86
2024/01/19 07:01:38;;;;;;;34.45;11.65;;;;;;;-5.88;100.00;100796.50;10344370;22;20064;-86
2024/01/19 07:05:42;;;;;;;37.35;13.48;;;;;;;-5.71;100.00;100820.66;10296226;22;20015;-86
2024/01/19 07:09:42;;;;;;;40.78;13.73;;;;;;;-5.97;100.00;100778.28;10280046;22;20486;-86
2024/01/19 07:13:43;;;;;;;40.30;14.07;;;;;;;-6.30;100.00;100802.63;10320942;22;20467;-85
2024/01/19 07:17:43;;;;;;;38.08;12.07;;;;;;;-6.46;99.63;100816.97;10301603;22;20181;-85
2024/01/19 07:21:44;;;;;;;37.53;14.35;;;;;;;-6.41;100.00;100841.38;10314191;22;20046;-86
2024/01/19 07:25:45;;;;;;;36.78;13.18;;;;;;;-6.88;98.77;100807.19;10316133;22;20019;-85
2024/01/19 07:29:45;;;;;;;32.03;12.15;;;;;;;-6.88;99.08;100836.97;10318977;22;20015;-86
2024/01/19 07:33:46;;;;;;;42.17;12.82;;;;;;;-7.11;97.89;100859.25;10320331;22;20007;-85
2024/01/19 07:37:49;;;;;;;36.22;12.75;;;;;;;-7.50;96.64;100846.69;10322238;22;20042;-87
2024/01/19 07:41:51;;;;;;;40.45;15.15;;;;;;;-7.70;96.77;100865.31;10295334;22;20016;-86
2024/01/19 07:45:51;;;;;;;38.47;13.57;;;;;;;-7.30;99.30;100870.88;10321441;22;20020;-87
2024/01/19 07:49:52;;;;;;;38.08;13.20;;;;;;;-7.25;99.71;100876.94;10320328;22;20348;-87
2024/01/19 07:53:54;;;;;;;41.00;13.18;;;;;;;-7.25;98.28;100895.31;10295631;22;20448;-86
2024/01/19 07:57:54;;;;;;;44.42;14.40;;;;;;;-7.42;97.56;100915.66;10292438;22;20024;-86
2024/01/19 08:01:55;;;;;;;40.42;13.82;;;;;;;-7.39;98.45;100886.75;10321017;22;20085;-85
2024/01/19 08:05:56;;;;;;;43.58;13.57;;;;;;;-7.50;97.03;100904.41;10322808;22;20016;-86
2024/01/19 08:09:57;;;;;;;44.88;13.90;;;;;;;-7.62;97.45;100862.59;10347648;22;20019;-86
2024/01/19 08:13:58;;;;;;;51.65;15.18;;;;;;;-7.79;95.11;100888.16;10348698;22;20016;-86
2024/01/19 08:17:59;;;;;;;56.22;15.98;;;;;;;-7.73;94.79;100923.06;10298511;22;20025;-86
2024/01/19 08:21:59;;;;;;;68.25;16.90;;;;;;;-7.86;95.24;100915.34;10349961;22;20030;-86
2024/01/19 08:26:00;;;;;;;60.10;17.98;;;;;;;-7.76;96.81;100901.22;10299664;22;20031;-86
2024/01/19 08:30:00;;;;;;;59.97;18.80;;;;;;;-7.35;96.74;100946.22;10348409;22;20020;-86
2024/01/19 08:34:04;;;;;;;55.55;17.67;;;;;;;-7.55;97.30;100874.72;10323848;22;20034;-86
2024/01/19 08:38:04;;;;;;;74.50;21.02;;;;;;;-6.84;98.39;100945.50;10298927;22;20011;-86
2024/01/19 08:42:06;;;;;;;58.17;17.77;;;;;;;-6.60;98.56;100955.63;10347468;22;20051;-86
2024/01/19 08:46:07;;;;;;;60.55;17.55;;;;;;;-6.32;99.74;100972.69;10297505;22;20012;-87
2024/01/19 08:50:10;;;;;;;;;;;;;;;-5.99;100.00;100961.63;10350692;22;20027;-87
2024/01/19 08:54:11;;;;;;;50.63;15.57;;;;;;;-6.09;100.00;100928.47;10334291;22;19941;-87
2024/01/19 08:58:11;;;;;;;42.97;13.70;;;;;;;-5.50;100.00;100951.84;10275809;22;20012;-88
2024/01/19 09:02:12;;;;;;;47.40;16.63;;;;;;;-4.43;98.36;100976.72;10368338;22;20035;-87
2024/01/19 09:06:12;;;;;;;52.97;17.25;;;;;;;-3.70;94.08;100985.41;10312753;22;20022;-86
2024/01/19 09:10:13;;;;;;;77.65;26.67;;;;;;;-3.10;91.40;100971.38;10273999;22;20015;-87
2024/01/19 09:14:15;;;;;;;60.95;23.38;;;;;;;-2.86;87.61;100985.66;10298700;22;20076;-87
2024/01/19 09:18:15;;;;;;;43.67;19.63;;;;;;;-2.66;88.31;101012.38;10321798;22;20555;-87
2024/01/19 09:22:16;;;;;;;62.42;18.10;;;;;;;-2.05;89.44;101017.47;10348164;22;20644;-87
2024/01/19 09:26:19;;;;;;;60.20;21.92;;;;;;;-1.23;88.63;101004.91;10323945;22;20078;-87
2024/01/19 09:30:19;;;;;;;65.85;22.67;;;;;;;-0.31;84.79;101028.78;10323270;22;20062;-87
2024/01/19 09:34:20;;;;;;;63.28;20.40;;;;;;;0.43;82.91;100996.50;10324100;22;20015;-86
2024/01/19 09:38:21;;;;;;;55.28;21.65;;;;;;;0.93;80.87;101013.78;10322203;22;20360;-86
2024/01/19 09:42:27;;;;;;;55.30;22.45;;;;;;;-0.02;80.34;101048.00;10321670;22;20098;-86
2024/01/19 09:46:29;;;;;;;53.15;21.30;;;;;;;0.21;82.49;101064.81;10348579;22;20020;-86
2024/01/19 09:50:36;;;;;;;55.17;20.65;;;;;;;0.86;81.50;101070.88;10324931;22;20015;-87
2024/01/19 09:54:37;;;;;;;43.28;18.65;;;;;;;1.14;78.77;101074.03;10322597;22;20016;-87
2024/01/19 09:58:38;;;;;;;43.78;17.60;;;;;;;0.88;78.14;101064.53;10305451;22;20026;-87
2024/01/19 10:02:43;;;;;;;64.82;19.92;;;;;;;-0.15;79.73;101099.88;10320854;22;20023;-86
2024/01/19 10:06:44;;;;;;;50.45;19.60;;;;;;;-1.41;84.03;101088.63;10324500;22;20058;-85
2024/01/19 10:10:45;;;;;;;54.65;19.48;;;;;;;-2.25;88.92;101078.16;10281247;22;20016;-86
2024/01/19 10:14:45;;;;;;;54.83;19.35;;;;;;;-2.21;93.51;101128.34;10335484;22;20070;-86
2024/01/19 10:18:47;;;;;;;59.22;21.60;;;;;;;-0.55;91.68;101126.19;10320944;22;20019;-86
2024/01/19 10:22:50;;;;;;;53.75;21.25;;;;;;;0.76;84.27;101117.44;10322764;22;20020;-86
2024/01/19 10:26:52;;;;;;;50.55;20.20;;;;;;;0.49;83.55;101137.19;10321671;22;20016;-85
2024/01/19 10:30:53;;;;;;;46.25;18.48;;;;;;;-0.47;87.56;101123.25;10346153;22;20079;-86
2024/01/19 10:35:05;;;;;;;46.67;18.67;;;;;;;-1.05;90.54;101140.41;10321116;22;20027;-85
